createdAt,value
2023-03-21T00:01:51.555Z,11.30
2023-03-21T00:04:18.776Z,8.60
2023-03-21T00:06:46.621Z,9.50
2023-03-21T00:09:13.756Z,10.60
2023-03-21T00:11:41.119Z,10.05
2023-03-21T00:14:09.043Z,11.68
2023-03-21T00:16:38.046Z,8.25
2023-03-21T00:19:07.529Z,8.48
2023-03-21T00:21:55.537Z,8.27
2023-03-21T00:24:25.532Z,8.52
2023-03-21T00:26:53.680Z,9.40
2023-03-21T00:29:21.126Z,9.27
2023-03-21T00:31:48.446Z,7.78
2023-03-21T00:34:17.695Z,8.95
2023-03-21T00:36:50.774Z,9.52
2023-03-21T00:39:17.941Z,6.97
2023-03-21T00:41:45.265Z,7.35
2023-03-21T00:44:16.169Z,7.35
2023-03-21T00:47:04.456Z,7.95
2023-03-21T00:49:34.280Z,8.25
2023-03-21T00:52:17.058Z,7.20
2023-03-21T00:54:47.701Z,8.73
2023-03-21T00:57:15.084Z,7.75
2023-03-21T00:59:42.384Z,9.98
2023-03-21T01:02:14.950Z,8.70
2023-03-21T01:04:42.500Z,7.57
2023-03-21T01:07:10.846Z,7.95
2023-03-21T01:09:39.033Z,7.78
2023-03-21T01:12:06.449Z,9.10
2023-03-21T01:14:33.659Z,7.22
2023-03-21T01:17:00.968Z,8.30
2023-03-21T01:19:40.947Z,8.98
2023-03-21T01:22:16.138Z,8.25
2023-03-21T01:24:53.877Z,7.35
2023-03-21T01:27:24.113Z,9.07
2023-03-21T01:29:51.597Z,6.40
2023-03-21T01:32:18.852Z,6.75
2023-03-21T01:34:46.133Z,7.90
2023-03-21T01:37:14.499Z,9.25
2023-03-21T01:39:47.191Z,6.82
2023-03-21T01:42:15.017Z,6.68
2023-03-21T01:45:01.727Z,6.82
2023-03-21T01:47:43.688Z,6.30
2023-03-21T01:50:27.106Z,7.28
2023-03-21T01:53:17.064Z,7.57
2023-03-21T01:55:44.371Z,6.57
2023-03-21T02:01:06.495Z,6.68
2023-03-21T02:03:51.229Z,9.88
2023-03-21T02:06:57.386Z,6.80
2023-03-21T02:09:46.611Z,7.93
2023-03-21T02:12:18.771Z,7.25
2023-03-21T02:14:49.601Z,8.85
2023-03-21T02:17:47.329Z,8.05
2023-03-21T02:20:44.059Z,5.85
2023-03-21T02:23:30.099Z,6.00
2023-03-21T02:26:19.164Z,6.80
2023-03-21T02:28:53.800Z,7.15
2023-03-21T02:32:00.857Z,6.63
2023-03-21T02:34:46.276Z,7.63
2023-03-21T02:37:36.760Z,10.93
2023-03-21T02:40:15.397Z,6.53
2023-03-21T02:42:51.643Z,6.82
2023-03-21T02:45:30.626Z,5.82
2023-03-21T02:48:06.903Z,8.02
2023-03-21T02:50:48.504Z,6.50
2023-03-21T02:53:23.672Z,6.18
2023-03-21T02:55:53.563Z,7.00
2023-03-21T02:58:25.542Z,5.88
2023-03-21T03:00:57.771Z,6.80
2023-03-21T03:03:35.930Z,7.63
2023-03-21T03:06:17.157Z,5.78
2023-03-21T03:09:01.791Z,6.72
2023-03-21T03:11:44.988Z,7.07
2023-03-21T03:14:56.406Z,7.38
2023-03-21T03:17:41.410Z,6.32
2023-03-21T03:20:18.022Z,5.45
2023-03-21T03:22:57.612Z,6.65
2023-03-21T03:25:42.852Z,6.35
2023-03-21T03:28:17.347Z,6.97
2023-03-21T03:31:01.127Z,6.38
2023-03-21T03:33:41.688Z,9.13
2023-03-21T03:36:21.444Z,5.50
2023-03-21T03:38:57.950Z,7.22
2023-03-21T03:41:29.353Z,6.25
2023-03-21T03:44:02.350Z,9.55
2023-03-21T03:46:48.146Z,6.50
2023-03-21T03:49:21.145Z,6.25
2023-03-21T03:52:20.409Z,6.93
2023-03-21T03:54:58.664Z,6.47
2023-03-21T03:57:27.660Z,6.82
2023-03-21T03:59:56.275Z,6.30
2023-03-21T04:02:45.283Z,6.90
2023-03-21T04:05:21.203Z,8.33
2023-03-21T04:07:51.147Z,5.30
2023-03-21T04:12:50.481Z,5.70
2023-03-21T04:15:26.111Z,7.93
2023-03-21T04:17:59.487Z,6.72
2023-03-21T04:20:36.598Z,7.68
2023-03-21T04:23:06.154Z,6.05
2023-03-21T04:25:36.899Z,5.53
2023-03-21T04:28:06.691Z,6.30
2023-03-21T04:30:58.934Z,7.97
2023-03-21T04:33:28.748Z,6.03
2023-03-21T04:35:59.214Z,5.82
2023-03-21T04:41:03.211Z,5.13
2023-03-21T04:43:32.179Z,8.20
2023-03-21T04:45:59.715Z,7.93
2023-03-21T04:48:28.026Z,6.07
2023-03-21T04:50:56.516Z,4.75
2023-03-21T04:53:23.924Z,5.38
2023-03-21T04:55:54.880Z,6.25
2023-03-21T04:58:24.130Z,5.05
2023-03-21T05:00:53.182Z,7.03
2023-03-21T05:03:22.017Z,5.57
2023-03-21T05:05:49.673Z,7.88
2023-03-21T05:08:19.351Z,5.80
2023-03-21T05:10:46.650Z,7.20
2023-03-21T05:13:14.073Z,5.07
2023-03-21T05:15:41.326Z,6.78
2023-03-21T05:18:11.588Z,4.60
2023-03-21T05:20:54.209Z,6.40
2023-03-21T05:23:22.764Z,5.43
2023-03-21T05:25:51.169Z,6.93
2023-03-21T05:28:36.957Z,5.40
2023-03-21T05:31:05.722Z,5.43
2023-03-21T05:33:33.381Z,5.70
2023-03-21T05:36:00.942Z,6.07
2023-03-21T05:38:31.631Z,5.70
2023-03-21T05:40:59.899Z,6.47
2023-03-21T05:43:27.519Z,7.85
2023-03-21T05:45:55.327Z,5.47
2023-03-21T05:48:24.230Z,4.45
2023-03-21T05:51:08.046Z,5.35
2023-03-21T05:53:35.842Z,5.15
2023-03-21T05:56:03.178Z,6.20
2023-03-21T05:58:42.968Z,5.00
2023-03-21T06:01:10.959Z,5.40
2023-03-21T06:03:42.014Z,5.05
2023-03-21T06:06:27.404Z,5.60
2023-03-21T06:09:00.907Z,8.55
2023-03-21T06:11:32.092Z,5.03
2023-03-21T06:14:20.907Z,4.95
2023-03-21T06:17:06.012Z,5.90
2023-03-21T06:19:35.168Z,7.35
2023-03-21T06:22:13.089Z,4.47
2023-03-21T06:24:41.861Z,6.38
2023-03-21T06:27:09.157Z,7.15
2023-03-21T06:29:51.628Z,4.93
2023-03-21T06:32:19.310Z,7.82
2023-03-21T06:34:48.636Z,5.88
2023-03-21T06:37:16.468Z,5.07
2023-03-21T06:39:43.949Z,4.50
2023-03-21T06:42:12.187Z,5.15
2023-03-21T06:44:39.848Z,6.38
2023-03-21T06:47:12.158Z,5.18
2023-03-21T06:49:42.921Z,4.43
2023-03-21T06:52:12.415Z,5.60
2023-03-21T06:54:40.441Z,6.10
2023-03-21T06:57:13.517Z,7.20
2023-03-21T06:59:44.089Z,5.50
2023-03-21T07:02:16.017Z,5.50
2023-03-21T07:04:50.902Z,5.10
2023-03-21T07:07:26.223Z,5.05
2023-03-21T07:09:53.472Z,5.90
2023-03-21T07:12:21.976Z,5.65
2023-03-21T07:15:08.324Z,4.90
2023-03-21T07:17:37.093Z,4.78
2023-03-21T07:20:08.050Z,5.53
2023-03-21T07:22:36.207Z,6.90
2023-03-21T07:25:05.648Z,4.90
2023-03-21T07:27:40.880Z,7.30
2023-03-21T07:30:10.217Z,5.88
2023-03-21T07:32:38.212Z,7.07
2023-03-21T07:35:12.540Z,5.60
2023-03-21T07:37:40.525Z,5.72
2023-03-21T07:40:10.732Z,6.25
2023-03-21T07:42:40.956Z,4.88
2023-03-21T07:45:14.692Z,8.55
2023-03-21T07:47:42.192Z,7.23
2023-03-21T07:50:10.024Z,10.43
2023-03-21T07:52:37.359Z,17.30
2023-03-21T07:55:05.328Z,13.73
2023-03-21T07:57:32.633Z,10.65
2023-03-21T07:59:59.936Z,11.43
2023-03-21T08:02:27.484Z,9.73
2023-03-21T08:04:54.832Z,14.45
2023-03-21T08:07:22.367Z,6.85
2023-03-21T08:09:49.732Z,8.90
2023-03-21T08:12:17.054Z,10.15
2023-03-21T08:14:44.537Z,7.03
2023-03-21T08:17:11.870Z,9.32
2023-03-21T08:19:39.208Z,8.45
2023-03-21T08:22:06.953Z,6.68
2023-03-21T08:24:34.427Z,7.03
2023-03-21T08:27:02.167Z,5.13
2023-03-21T08:29:29.579Z,7.35
2023-03-21T08:31:58.089Z,4.88
2023-03-21T08:34:26.682Z,6.05
2023-03-21T08:36:54.681Z,7.53
2023-03-21T08:39:22.513Z,6.05
2023-03-21T08:41:49.801Z,8.40
2023-03-21T08:44:17.184Z,5.18
2023-03-21T08:46:44.573Z,5.53
2023-03-21T08:49:12.635Z,5.93
2023-03-21T08:51:41.229Z,5.53
2023-03-21T08:54:17.310Z,7.60
2023-03-21T08:56:44.624Z,6.63
2023-03-21T08:59:11.946Z,5.35
2023-03-21T09:01:39.569Z,5.47
2023-03-21T09:04:10.765Z,5.65
2023-03-21T09:06:41.033Z,4.93
2023-03-21T09:09:09.427Z,5.57
2023-03-21T09:11:36.834Z,8.15
2023-03-21T09:14:34.769Z,7.20
2023-03-21T09:17:02.419Z,6.47
2023-03-21T09:19:30.444Z,4.35
2023-03-21T09:21:57.910Z,4.80
2023-03-21T09:24:26.445Z,6.65
2023-03-21T09:26:53.847Z,4.75
2023-03-21T09:29:21.537Z,4.80
2023-03-21T09:31:49.836Z,5.57
2023-03-21T09:34:17.197Z,4.82
2023-03-21T09:36:44.816Z,4.90
2023-03-21T09:39:12.800Z,5.40
2023-03-21T09:42:12.215Z,5.25
2023-03-21T09:44:46.135Z,6.28
2023-03-21T09:47:19.752Z,5.47
2023-03-21T09:49:56.878Z,6.22
2023-03-21T09:53:05.831Z,4.45
2023-03-21T09:55:36.656Z,6.05
2023-03-21T09:58:14.418Z,5.50
2023-03-21T10:00:47.505Z,6.53
2023-03-21T10:05:58.779Z,5.35
2023-03-21T10:08:36.613Z,5.47
2023-03-21T10:11:12.712Z,5.28
2023-03-21T10:13:46.678Z,5.25
2023-03-21T10:16:17.629Z,5.60
2023-03-21T10:18:46.934Z,4.68
2023-03-21T10:21:56.394Z,4.60
2023-03-21T10:24:26.958Z,6.20
2023-03-21T10:26:56.066Z,4.97
2023-03-21T10:29:37.172Z,6.97
2023-03-21T10:32:06.386Z,5.13
2023-03-21T10:34:40.063Z,4.13
2023-03-21T10:37:08.108Z,5.93
2023-03-21T10:39:40.353Z,5.53
2023-03-21T10:42:25.355Z,6.43
2023-03-21T10:44:55.264Z,4.93
2023-03-21T10:47:27.462Z,4.70
2023-03-21T10:50:11.041Z,5.57
2023-03-21T10:52:45.565Z,6.45
2023-03-21T10:55:25.799Z,8.07
2023-03-21T10:57:57.703Z,4.35
2023-03-21T11:00:29.794Z,6.15
2023-03-21T11:02:58.346Z,6.07
2023-03-21T11:05:33.797Z,5.32
2023-03-21T11:08:06.976Z,4.28
2023-03-21T11:10:51.265Z,4.90
2023-03-21T11:13:40.814Z,5.65
2023-03-21T11:16:22.700Z,4.60
2023-03-21T11:18:51.815Z,5.32
2023-03-21T11:21:21.697Z,5.93
2023-03-21T11:23:51.785Z,5.88
2023-03-21T11:26:32.929Z,4.53
2023-03-21T11:29:01.179Z,4.90
2023-03-21T11:31:40.181Z,6.50
2023-03-21T11:34:09.343Z,5.18
2023-03-21T11:36:41.773Z,5.47
2023-03-21T11:39:11.814Z,5.78
2023-03-21T11:41:41.116Z,7.20
2023-03-21T11:44:26.532Z,5.05
2023-03-21T11:46:54.452Z,6.70
2023-03-21T11:49:23.266Z,5.35
2023-03-21T11:52:08.458Z,5.07
2023-03-21T11:54:44.308Z,4.95
2023-03-21T11:57:44.101Z,4.75
2023-03-21T12:00:25.970Z,5.15
2023-03-21T12:03:19.621Z,4.55
2023-03-21T12:09:01.721Z,5.25
2023-03-21T12:11:52.616Z,4.60
2023-03-21T12:14:27.379Z,4.65
2023-03-21T12:17:31.782Z,4.13
2023-03-21T12:20:14.386Z,4.43
2023-03-21T12:22:54.624Z,7.68
2023-03-21T12:25:29.064Z,9.98
2023-03-21T12:28:32.443Z,12.30
2023-03-21T12:31:09.183Z,13.30
2023-03-21T12:33:57.579Z,8.00
2023-03-21T12:36:31.001Z,8.55
2023-03-21T12:39:16.982Z,10.18
2023-03-21T12:41:52.934Z,7.13
2023-03-21T12:44:26.357Z,9.13
2023-03-21T12:47:13.447Z,6.90
2023-03-21T12:50:09.976Z,7.20
2023-03-21T12:52:41.634Z,6.18
2023-03-21T12:55:47.422Z,5.88
2023-03-21T12:58:24.398Z,6.38
2023-03-21T13:00:54.308Z,6.00
2023-03-21T13:03:45.357Z,7.93
2023-03-21T13:06:18.357Z,7.32
2023-03-21T13:08:58.160Z,5.72
2023-03-21T13:11:29.189Z,6.03
2023-03-21T13:14:05.465Z,6.30
2023-03-21T13:16:39.119Z,6.80
2023-03-21T13:19:09.198Z,6.95
2023-03-21T13:21:40.623Z,5.60
2023-03-21T13:24:19.969Z,6.25
2023-03-21T13:26:57.876Z,6.43
2023-03-21T13:29:44.388Z,8.57
2023-03-21T13:32:30.861Z,5.47
2023-03-21T13:35:21.156Z,7.63
2023-03-21T13:37:57.190Z,10.25
2023-03-21T13:40:57.198Z,6.03
2023-03-21T13:43:39.397Z,5.70
2023-03-21T13:46:12.921Z,4.75
2023-03-21T13:49:04.446Z,5.97
2023-03-21T13:51:31.691Z,5.07
2023-03-21T13:54:08.952Z,5.03
2023-03-21T13:57:01.152Z,4.15
2023-03-21T13:59:37.773Z,5.85
2023-03-21T14:02:31.714Z,4.40
2023-03-21T14:05:06.406Z,7.32
2023-03-21T14:07:42.864Z,4.78
2023-03-21T14:10:28.647Z,4.53
2023-03-21T14:12:57.125Z,5.05
2023-03-21T14:15:27.728Z,4.38
2023-03-21T14:17:59.035Z,4.20
2023-03-21T14:20:32.488Z,3.70
2023-03-21T14:23:00.083Z,5.05
2023-03-21T14:25:40.932Z,5.90
2023-03-21T14:28:18.870Z,5.63
2023-03-21T14:30:51.601Z,4.38
2023-03-21T14:33:27.206Z,5.97
2023-03-21T14:36:00.887Z,5.22
2023-03-21T14:38:35.729Z,5.32
2023-03-21T14:41:04.190Z,5.55
2023-03-21T14:43:34.218Z,3.88
2023-03-21T14:46:01.613Z,4.85
2023-03-21T14:48:32.066Z,4.00
2023-03-21T14:51:06.014Z,4.85
2023-03-21T14:53:39.964Z,6.35
2023-03-21T14:56:17.054Z,3.78
2023-03-21T14:58:46.177Z,3.47
2023-03-21T15:01:24.981Z,3.85
2023-03-21T15:03:52.712Z,3.67
2023-03-21T15:06:20.297Z,5.00
2023-03-21T15:09:02.784Z,3.92
2023-03-21T15:11:33.811Z,4.63
2023-03-21T15:14:04.286Z,3.80
2023-03-21T15:16:32.365Z,4.20
2023-03-21T15:19:01.873Z,4.90
2023-03-21T15:21:42.252Z,4.07
2023-03-21T15:24:17.136Z,5.53
2023-03-21T15:26:46.527Z,3.63
2023-03-21T15:29:16.265Z,4.95
2023-03-21T15:31:44.774Z,4.38
2023-03-21T15:34:21.224Z,5.03
2023-03-21T15:36:50.919Z,6.68
2023-03-21T15:39:21.588Z,4.35
2023-03-21T15:42:03.859Z,4.05
2023-03-21T15:44:32.269Z,4.75
2023-03-21T15:46:59.949Z,5.10
2023-03-21T15:49:40.343Z,4.30
2023-03-21T15:52:17.043Z,13.27
2023-03-21T15:54:59.434Z,18.10
2023-03-21T15:57:32.802Z,21.52
2023-03-21T16:00:28.020Z,17.83
2023-03-21T16:03:00.909Z,24.10
2023-03-21T16:05:31.535Z,20.30
2023-03-21T16:08:22.959Z,16.20
2023-03-21T16:10:50.243Z,14.57
2023-03-21T16:13:17.824Z,11.75
2023-03-21T16:15:46.935Z,9.63
2023-03-21T16:18:16.190Z,13.25
2023-03-21T16:20:46.125Z,14.25
2023-03-21T16:23:15.002Z,11.27
2023-03-21T16:25:44.102Z,10.43
2023-03-21T16:28:16.530Z,7.22
2023-03-21T16:30:44.942Z,11.10
2023-03-21T16:33:13.355Z,8.63
2023-03-21T16:35:41.270Z,8.60
2023-03-21T16:38:12.473Z,11.07
2023-03-21T16:40:43.512Z,8.23
2023-03-21T16:43:11.453Z,7.22
2023-03-21T16:45:38.801Z,11.48
2023-03-21T16:48:08.753Z,8.90
2023-03-21T16:50:41.338Z,13.00
2023-03-21T16:53:09.552Z,8.57
2023-03-21T16:55:37.770Z,7.60
2023-03-21T16:58:06.241Z,5.13
2023-03-21T17:00:33.901Z,7.18
2023-03-21T17:03:06.582Z,8.43
2023-03-21T17:05:34.036Z,8.25
2023-03-21T17:08:02.563Z,5.78
2023-03-21T17:10:31.761Z,8.70
2023-03-21T17:12:59.772Z,7.75
2023-03-21T17:15:27.122Z,8.20
2023-03-21T17:17:55.835Z,8.55
2023-03-21T17:20:32.559Z,7.75
2023-03-21T17:23:00.286Z,7.95
2023-03-21T17:25:27.816Z,8.27
2023-03-21T17:27:56.328Z,8.43
2023-03-21T17:30:33.406Z,8.65
2023-03-21T17:33:00.742Z,7.10
2023-03-21T17:35:29.008Z,6.22
2023-03-21T17:37:58.617Z,6.45
2023-03-21T17:40:28.794Z,5.70
2023-03-21T17:42:57.290Z,6.72
2023-03-21T17:45:25.361Z,7.32
2023-03-21T17:47:53.045Z,6.20
2023-03-21T17:50:27.216Z,5.10
2023-03-21T17:52:57.358Z,5.35
2023-03-21T17:55:24.999Z,7.30
2023-03-21T17:57:52.302Z,9.27
2023-03-21T18:00:24.145Z,8.93
2023-03-21T18:02:51.868Z,9.10
2023-03-21T18:05:21.594Z,7.50
2023-03-21T18:10:37.404Z,6.32
2023-03-21T18:13:04.884Z,8.23
2023-03-21T18:15:32.935Z,7.53
2023-03-21T18:18:00.229Z,9.48
2023-03-21T18:20:49.840Z,7.95
2023-03-21T18:23:16.090Z,9.20
2023-03-21T18:25:43.489Z,9.38
2023-03-21T18:28:12.628Z,10.02
2023-03-21T18:31:05.426Z,9.52
2023-03-21T18:33:28.624Z,7.28
2023-03-21T18:36:00.005Z,7.38
2023-03-21T18:38:28.773Z,7.18
2023-03-21T18:40:56.669Z,6.57
2023-03-21T18:43:59.648Z,6.00
2023-03-21T18:46:12.726Z,9.60
2023-03-21T18:48:40.415Z,7.25
2023-03-21T18:51:09.592Z,6.78
2023-03-21T18:53:37.337Z,7.97
2023-03-21T18:56:09.946Z,7.28
2023-03-21T18:58:37.653Z,8.38
2023-03-21T19:01:05.456Z,6.70
2023-03-21T19:03:36.939Z,6.63
2023-03-21T19:06:06.504Z,8.00
2023-03-21T19:08:38.354Z,6.15
2023-03-21T19:11:07.081Z,7.47
2023-03-21T19:13:34.866Z,9.50
2023-03-21T19:16:03.054Z,6.47
2023-03-21T19:18:53.361Z,8.38
2023-03-21T19:21:19.572Z,10.57
2023-03-21T19:24:22.923Z,7.32
2023-03-21T19:26:34.677Z,9.65
2023-03-21T19:29:02.063Z,7.82
2023-03-21T19:31:29.463Z,9.40
2023-03-21T19:33:57.196Z,9.10
2023-03-21T19:36:26.362Z,9.23
2023-03-21T19:38:53.902Z,9.57
2023-03-21T19:41:21.226Z,10.57
2023-03-21T19:43:54.821Z,8.43
2023-03-21T19:46:25.017Z,9.77
2023-03-21T19:48:56.940Z,8.65
2023-03-21T19:51:29.869Z,7.90
2023-03-21T19:54:04.570Z,11.65
2023-03-21T19:56:32.110Z,7.55
2023-03-21T19:59:02.624Z,9.43
2023-03-21T20:01:32.458Z,7.57
2023-03-21T20:04:00.691Z,7.22
2023-03-21T20:06:28.300Z,6.65
2023-03-21T20:11:43.551Z,9.88
2023-03-21T20:14:11.047Z,7.30
2023-03-21T20:16:38.378Z,7.30
2023-03-21T20:19:08.960Z,9.77
2023-03-21T20:21:47.699Z,9.23
2023-03-21T20:24:17.643Z,8.95
2023-03-21T20:26:48.597Z,6.95
2023-03-21T20:30:06.943Z,10.98
2023-03-21T20:32:04.379Z,8.15
2023-03-21T20:34:31.761Z,7.60
2023-03-21T20:36:59.146Z,6.07
2023-03-21T20:39:29.455Z,8.70
2023-03-21T20:41:59.414Z,8.52
2023-03-21T20:44:51.961Z,7.15
2023-03-21T20:47:15.105Z,13.45
2023-03-21T20:49:42.391Z,9.50
2023-03-21T20:54:57.553Z,9.07
2023-03-21T20:57:28.722Z,13.45
2023-03-21T20:59:57.612Z,9.80
2023-03-21T21:02:25.272Z,6.75
2023-03-21T21:05:23.745Z,7.88
2023-03-21T21:07:42.753Z,9.27
2023-03-21T21:10:14.175Z,8.90
2023-03-21T21:12:45.133Z,7.25
2023-03-21T21:15:16.687Z,7.78
2023-03-21T21:20:33.800Z,9.52
2023-03-21T21:23:01.264Z,8.45
2023-03-21T21:25:31.905Z,11.38
2023-03-21T21:28:01.699Z,8.10
2023-03-21T21:30:29.794Z,8.70
2023-03-21T21:32:59.691Z,8.43
2023-03-21T21:35:27.134Z,7.65
2023-03-21T21:37:54.895Z,8.43
2023-03-21T21:40:23.364Z,8.43
2023-03-21T21:42:50.981Z,10.15
2023-03-21T21:45:18.979Z,8.02
2023-03-21T21:47:46.566Z,11.02
2023-03-21T21:50:14.255Z,8.95
2023-03-21T21:52:43.868Z,7.90
2023-03-21T21:55:13.098Z,8.10
2023-03-21T21:57:41.050Z,9.32
2023-03-21T22:00:13.707Z,8.40
2023-03-21T22:02:41.571Z,9.27
2023-03-21T22:05:10.518Z,15.90
2023-03-21T22:07:38.225Z,13.13
2023-03-21T22:10:06.643Z,14.10
2023-03-21T22:12:33.997Z,11.57
2023-03-21T22:15:01.558Z,11.60
2023-03-21T22:17:29.039Z,13.55
2023-03-21T22:20:05.753Z,14.05
2023-03-21T22:22:34.992Z,11.75
2023-03-21T22:25:03.709Z,11.82
2023-03-21T22:27:31.190Z,11.90
2023-03-21T22:30:04.727Z,11.73
2023-03-21T22:32:32.456Z,12.40
2023-03-21T22:35:02.316Z,12.07
2023-03-21T22:37:35.499Z,15.60
2023-03-21T22:42:32.680Z,12.60
2023-03-21T22:44:59.942Z,12.80
2023-03-21T22:47:27.395Z,15.30
2023-03-21T22:49:54.615Z,13.45
2023-03-21T22:52:23.013Z,11.88
2023-03-21T22:54:50.419Z,12.13
2023-03-21T22:57:20.124Z,12.20
2023-03-21T22:59:47.385Z,11.45
2023-03-21T23:02:15.696Z,18.10
2023-03-21T23:04:43.066Z,13.57
2023-03-21T23:07:10.699Z,11.55
2023-03-21T23:09:38.038Z,11.43
2023-03-21T23:12:05.469Z,11.13
2023-03-21T23:14:32.767Z,11.77
2023-03-21T23:17:00.232Z,10.88
2023-03-21T23:19:28.784Z,11.75
2023-03-21T23:21:56.263Z,11.38
2023-03-21T23:24:24.495Z,13.98
2023-03-21T23:26:51.871Z,12.40
2023-03-21T23:29:19.228Z,12.60
2023-03-21T23:31:46.866Z,12.48
2023-03-21T23:34:14.367Z,13.18
2023-03-21T23:36:42.057Z,10.88
2023-03-21T23:39:09.920Z,11.50
2023-03-21T23:41:37.350Z,13.38
2023-03-21T23:44:05.230Z,11.73
2023-03-21T23:46:32.825Z,10.82
2023-03-21T23:49:00.417Z,12.70
2023-03-21T23:51:27.841Z,10.80
2023-03-21T23:53:56.617Z,11.30
2023-03-21T23:56:26.170Z,10.85
2023-03-21T23:58:54.125Z,9.70
